Lime Rock, Pennsylvania
Current Conditions -  °F | °C
As of 7:24 PM on Wednesday 26 Nov 2014 (Local Time) from KLNS Reporting Station
Light Snow Light Snow  
Wind Chill: 27°   Ceiling: 3200
Heat Index: 33°   Visibility: 8mi
Dew Point: 31°   Wind: 7mph
Humidity: 92%   Direction: 330°NNW
Pressure: 29.91"   Gusts: NA
Location:  40.1769°N, 76.295°W
Report Text: KLNS 270024Z 33006KT 8SM -SN SCT012 OVC032 01/M01 A2991 RMK AO2 P0000 T00061006
Loading
Personal Weather Stations






























Interactive Weather Map New forecast layout! Learn more

10-Day Weather Forecast

Advertisements
Track Severe Weather on mobile